Time;durP1;ratioP1;P1;durP2;ratioP2;P2;SDS_P1;SDS_P2;PMS_P1;PMS_P2;Temp;Humidity;BMP_temperature;BMP_pressure;BME280_temperature;BME280_humidity;BME280_pressure;Samples;Min_cycle;Max_cycle;Signal;HPM_P1;HPM_P2
2020/12/21 00:01:57;;;;;;;14.05;3.35;;;6.50;96.00;;;;;;4857124;29;20047;-79
2020/12/21 00:04:23;;;;;;;21.20;4.00;;;6.40;96.00;;;;;;4854601;29;20056;-79
2020/12/21 00:06:54;;;;;;;9.05;2.70;;;6.40;96.00;;;;;;4851842;29;20037;-79
2020/12/21 00:09:21;;;;;;;10.90;3.80;;;6.40;96.00;;;;;;4877176;29;20056;-79
2020/12/21 00:11:48;;;;;;;15.27;3.83;;;6.40;96.10;;;;;;4900746;29;20490;-78
2020/12/21 00:14:15;;;;;;;13.63;3.95;;;6.40;96.10;;;;;;4879616;29;20036;-79
2020/12/21 00:16:44;;;;;;;21.67;4.97;;;6.40;96.10;;;;;;4881748;29;20064;-79
2020/12/21 00:19:11;;;;;;;13.23;4.13;;;6.40;96.10;;;;;;4902062;29;20052;-78
2020/12/21 00:21:39;;;;;;;10.57;3.47;;;6.40;96.20;;;;;;4877884;29;20036;-79
2020/12/21 00:24:07;;;;;;;20.65;4.10;;;6.30;96.10;;;;;;4888153;29;20067;-79
2020/12/21 00:26:34;;;;;;;10.68;3.83;;;6.30;96.10;;;;;;4853054;29;20045;-79
2020/12/21 00:29:00;;;;;;;13.52;3.95;;;6.30;96.20;;;;;;4881416;29;20044;-78
2020/12/21 00:31:33;;;;;;;15.07;4.10;;;6.30;96.20;;;;;;4842981;29;20051;-79
2020/12/21 00:34:01;;;;;;;9.27;2.75;;;6.30;96.20;;;;;;4892104;29;20059;-79
2020/12/21 00:36:28;;;;;;;12.90;3.15;;;6.20;96.20;;;;;;4890253;29;20040;-79
2020/12/21 00:38:55;;;;;;;15.18;3.58;;;6.20;96.20;;;;;;4908027;29;20369;-79
2020/12/21 00:41:24;;;;;;;14.85;3.65;;;6.10;96.20;;;;;;4858994;29;20037;-79
2020/12/21 00:43:53;;;;;;;14.98;5.13;;;6.20;96.30;;;;;;4876946;29;20388;-80
2020/12/21 00:46:26;;;;;;;15.95;3.80;;;6.20;96.30;;;;;;4880992;29;20052;-79
2020/12/21 00:48:54;;;;;;;16.80;3.65;;;6.10;96.30;;;;;;4862761;29;20040;-79
2020/12/21 00:51:21;;;;;;;12.80;4.22;;;6.10;96.30;;;;;;4911016;29;20061;-79
2020/12/21 00:53:48;;;;;;;9.05;2.80;;;6.10;96.30;;;;;;4871962;29;20036;-79
2020/12/21 00:56:16;;;;;;;10.02;3.05;;;6.10;96.30;;;;;;4855284;29;20040;-79
2020/12/21 00:58:45;;;;;;;20.38;4.75;;;6.10;96.40;;;;;;4912099;29;20423;-79
2020/12/21 01:01:15;;;;;;;9.38;3.63;;;6.00;96.40;;;;;;4876756;29;21338;-79
2020/12/21 01:03:42;;;;;;;10.50;3.65;;;6.10;96.40;;;;;;4873088;29;20072;-80
2020/12/21 01:06:08;;;;;;;15.38;3.38;;;6.10;96.40;;;;;;4864303;29;20048;-79
2020/12/21 01:08:36;;;;;;;14.50;3.63;;;6.00;96.40;;;;;;4875969;29;20045;-80
2020/12/21 01:11:12;;;;;;;11.45;3.17;;;6.00;96.40;;;;;;4863736;29;20045;-79
2020/12/21 01:13:39;;;;;;;8.48;3.03;;;6.00;96.40;;;;;;4876664;29;20059;-79
2020/12/21 01:16:06;;;;;;;11.55;3.17;;;6.00;96.40;;;;;;4854506;29;20400;-79
2020/12/21 01:18:33;;;;;;;11.35;3.30;;;5.90;96.40;;;;;;4878395;29;20032;-79
2020/12/21 01:21:00;;;;;;;9.23;2.40;;;5.90;96.40;;;;;;4892956;29;20381;-79
2020/12/21 01:23:26;;;;;;;12.32;2.90;;;5.90;96.40;;;;;;4872874;29;20496;-79
2020/12/21 01:25:53;;;;;;;12.00;3.30;;;5.90;96.40;;;;;;4891764;29;20028;-79
2020/12/21 01:28:20;;;;;;;8.80;3.00;;;5.90;96.40;;;;;;4896757;29;20044;-79
2020/12/21 01:30:46;;;;;;;10.65;2.63;;;5.80;96.40;;;;;;4871704;29;20512;-79
2020/12/21 01:33:13;;;;;;;7.45;2.03;;;5.80;96.50;;;;;;4859468;29;20040;-79
2020/12/21 01:35:39;;;;;;;11.10;2.85;;;5.80;96.50;;;;;;4892040;29;20048;-79
2020/12/21 01:38:08;;;;;;;14.30;2.90;;;5.70;96.50;;;;;;4862818;29;20052;-79
2020/12/21 01:40:35;;;;;;;13.45;3.70;;;5.70;96.50;;;;;;4873959;29;20044;-79
2020/12/21 01:43:01;;;;;;;13.40;3.63;;;5.70;96.60;;;;;;4867911;29;20036;-79
2020/12/21 01:45:28;;;;;;;14.93;3.70;;;5.70;96.60;;;;;;4870948;29;20040;-79
2020/12/21 01:47:55;;;;;;;12.13;3.67;;;5.70;96.60;;;;;;4867314;29;20399;-79
2020/12/21 01:50:21;;;;;;;9.40;3.67;;;5.70;96.60;;;;;;4870774;29;20130;-79
2020/12/21 01:52:48;;;;;;;14.77;3.50;;;5.70;96.70;;;;;;4873120;29;20036;-79
2020/12/21 01:55:14;;;;;;;12.52;2.78;;;5.70;96.60;;;;;;4881179;29;20051;-79
2020/12/21 01:57:41;;;;;;;7.95;2.58;;;5.70;96.60;;;;;;4857759;29;20058;-79
2020/12/21 02:00:08;;;;;;;13.25;3.47;;;5.70;96.60;;;;;;4874408;29;20393;-79
2020/12/21 02:02:40;;;;;;;11.98;2.97;;;5.60;96.60;;;;;;4882399;29;20032;-79
2020/12/21 02:05:07;;;;;;;15.50;3.10;;;5.60;96.60;;;;;;4882171;29;20055;-79
2020/12/21 02:07:33;;;;;;;10.98;2.67;;;5.60;96.60;;;;;;4885808;29;20040;-80
2020/12/21 02:10:00;;;;;;;9.98;2.30;;;5.60;96.60;;;;;;4900010;29;20053;-79
2020/12/21 02:12:26;;;;;;;10.05;3.13;;;5.60;96.60;;;;;;4884666;29;20036;-79
2020/12/21 02:14:52;;;;;;;14.63;3.53;;;5.60;96.70;;;;;;4893582;29;20053;-79
2020/12/21 02:17:19;;;;;;;16.55;3.70;;;5.50;96.90;;;;;;4890992;29;20488;-79
2020/12/21 02:19:45;;;;;;;9.32;2.88;;;5.60;96.70;;;;;;4868229;29;20048;-79
2020/12/21 02:22:12;;;;;;;10.52;2.53;;;5.50;96.70;;;;;;4897127;29;20035;-79
2020/12/21 02:24:40;;;;;;;11.50;3.25;;;5.60;96.70;;;;;;4885191;29;20487;-79
2020/12/21 02:27:06;;;;;;;10.10;2.42;;;5.50;96.70;;;;;;4882253;29;20520;-79
2020/12/21 02:29:33;;;;;;;10.93;3.08;;;5.50;96.70;;;;;;4908586;29;20044;-79
2020/12/21 02:32:00;;;;;;;12.98;3.80;;;5.50;96.70;;;;;;4892085;29;21053;-79
2020/12/21 02:34:27;;;;;;;15.03;3.33;;;5.50;96.70;;;;;;4843872;29;20662;-79
2020/12/21 02:36:55;;;;;;;13.43;3.40;;;5.50;96.70;;;;;;4877250;29;20062;-79
2020/12/21 02:39:23;;;;;;;8.70;2.05;;;5.60;96.70;;;;;;4870866;29;20048;-79
2020/12/21 02:41:50;;;;;;;9.38;2.40;;;5.60;96.70;;;;;;4887058;29;20072;-80
2020/12/21 02:44:17;;;;;;;9.73;2.27;;;5.50;96.70;;;;;;4893200;29;20055;-79
2020/12/21 02:46:44;;;;;;;13.00;2.78;;;5.50;96.70;;;;;;4885426;29;20056;-79
2020/12/21 02:49:12;;;;;;;10.27;2.28;;;5.50;96.70;;;;;;4875523;29;20040;-79
2020/12/21 02:51:38;;;;;;;7.65;2.95;;;5.50;96.70;;;;;;4874864;29;20032;-79
2020/12/21 02:54:04;;;;;;;8.48;1.73;;;5.50;96.70;;;;;;4860217;29;20436;-79
2020/12/21 02:56:31;;;;;;;7.20;2.67;;;5.50;96.70;;;;;;4877169;29;20404;-79
2020/12/21 02:58:58;;;;;;;13.15;2.30;;;5.50;96.70;;;;;;4840634;29;20496;-79
2020/12/21 03:01:24;;;;;;;9.52;2.25;;;5.50;96.70;;;;;;4870040;29;20048;-79
2020/12/21 03:03:50;;;;;;;8.57;2.72;;;5.50;96.80;;;;;;4842922;29;20053;-79
2020/12/21 03:06:17;;;;;;;7.60;2.15;;;5.50;96.80;;;;;;4864151;29;20087;-79
2020/12/21 03:08:43;;;;;;;10.00;2.42;;;5.50;96.80;;;;;;4879041;29;20052;-79
2020/12/21 03:11:10;;;;;;;8.73;2.03;;;5.50;96.80;;;;;;4890994;29;20052;-79
2020/12/21 03:13:51;;;;;;;10.40;2.17;;;5.40;96.70;;;;;;4862485;29;20044;-79
2020/12/21 03:16:18;;;;;;;6.45;1.92;;;5.40;96.80;;;;;;4876428;29;20060;-79
2020/12/21 03:18:44;;;;;;;8.75;2.20;;;5.40;96.80;;;;;;4891041;29;20055;-79
2020/12/21 03:21:11;;;;;;;7.03;1.30;;;5.40;96.80;;;;;;4849169;29;20399;-79
2020/12/21 03:23:37;;;;;;;8.50;2.03;;;5.40;96.80;;;;;;4856896;29;20397;-79
2020/12/21 03:26:04;;;;;;;8.15;2.15;;;5.40;96.80;;;;;;4871420;29;20035;-79
2020/12/21 03:28:30;;;;;;;7.90;1.60;;;5.40;96.80;;;;;;4890436;29;20059;-79
2020/12/21 03:30:56;;;;;;;7.35;1.80;;;5.40;96.80;;;;;;4874352;29;20037;-79
2020/12/21 03:33:23;;;;;;;8.60;2.08;;;5.30;96.70;;;;;;4889551;29;20052;-79
2020/12/21 03:35:50;;;;;;;11.18;2.47;;;5.30;96.80;;;;;;4871874;29;20055;-79
2020/12/21 03:38:16;;;;;;;14.10;3.33;;;5.30;96.80;;;;;;4866959;29;20392;-79
2020/12/21 03:40:42;;;;;;;12.82;2.85;;;5.30;96.80;;;;;;4872051;29;20491;-79
2020/12/21 03:43:09;;;;;;;10.93;2.22;;;5.40;96.90;;;;;;4874332;29;20059;-79
2020/12/21 03:45:35;;;;;;;9.02;2.00;;;5.40;97.10;;;;;;4891579;29;20051;-79
2020/12/21 03:48:02;;;;;;;10.97;1.80;;;5.30;96.80;;;;;;4860119;29;20057;-79
2020/12/21 03:50:28;;;;;;;9.57;2.40;;;5.30;96.80;;;;;;4903695;29;21466;-79
2020/12/21 03:52:55;;;;;;;8.40;1.65;;;5.30;96.80;;;;;;4864791;29;20044;-79
2020/12/21 03:55:21;;;;;;;5.28;1.50;;;5.30;96.80;;;;;;4870899;29;20045;-79
2020/12/21 03:57:48;;;;;;;7.57;1.65;;;5.30;96.80;;;;;;4856441;29;20067;-79
2020/12/21 04:00:14;;;;;;;9.00;1.53;;;5.30;96.80;;;;;;4874844;29;20063;-79
2020/12/21 04:02:40;;;;;;;8.02;1.77;;;5.20;96.80;;;;;;4876417;29;20056;-79
2020/12/21 04:05:08;;;;;;;10.05;1.88;;;5.20;96.90;;;;;;4870698;29;20060;-80
2020/12/21 04:07:36;;;;;;;11.77;2.53;;;5.30;96.90;;;;;;4909781;29;20040;-79
2020/12/21 04:10:05;;;;;;;16.37;2.80;;;5.30;96.90;;;;;;4872209;29;20045;-79
2020/12/21 04:12:31;;;;;;;8.98;2.38;;;5.30;96.90;;;;;;4890447;29;20073;-80
2020/12/21 04:14:58;;;;;;;8.57;2.10;;;5.40;96.90;;;;;;4883195;29;20047;-79
2020/12/21 04:17:24;;;;;;;10.47;1.87;;;5.40;96.90;;;;;;4903372;29;20053;-79
2020/12/21 04:19:51;;;;;;;10.98;2.67;;;5.40;96.80;;;;;;4908855;29;20048;-79
2020/12/21 04:22:17;;;;;;;10.65;2.45;;;5.50;96.80;;;;;;4857057;29;20044;-79
2020/12/21 04:24:44;;;;;;;9.50;1.75;;;5.50;96.80;;;;;;4864315;29;20052;-79
2020/12/21 04:27:10;;;;;;;10.93;2.47;;;5.50;96.80;;;;;;4856851;29;20055;-79
2020/12/21 04:29:37;;;;;;;9.27;2.00;;;5.50;96.80;;;;;;4874313;29;20060;-79
2020/12/21 04:32:04;;;;;;;7.32;1.70;;;5.40;96.70;;;;;;4859100;29;20036;-79
2020/12/21 04:34:31;;;;;;;6.38;1.67;;;5.40;96.70;;;;;;4859038;29;20067;-79
2020/12/21 04:36:57;;;;;;;8.88;1.83;;;5.30;96.80;;;;;;4882188;29;20060;-79
2020/12/21 04:39:24;;;;;;;19.95;3.42;;;5.30;96.80;;;;;;4871347;29;20431;-79
2020/12/21 04:41:52;;;;;;;9.50;2.13;;;5.30;96.90;;;;;;4894544;29;20048;-79
2020/12/21 04:44:20;;;;;;;10.00;2.47;;;5.30;96.90;;;;;;4881638;29;20052;-79
2020/12/21 04:46:56;;;;;;;7.33;2.00;;;5.30;96.90;;;;;;4887024;29;20680;-80
2020/12/21 04:49:24;;;;;;;11.70;2.33;;;5.30;96.90;;;;;;4857921;29;20036;-79
2020/12/21 04:51:51;;;;;;;8.60;1.92;;;5.30;96.80;;;;;;4850432;29;20051;-79
2020/12/21 04:54:19;;;;;;;10.90;1.97;;;5.30;96.80;;;;;;4879918;29;21018;-79
2020/12/21 04:56:47;;;;;;;10.60;2.03;;;5.30;96.80;;;;;;4872204;29;20047;-79
2020/12/21 04:59:14;;;;;;;10.98;2.55;;;5.30;96.80;;;;;;4879301;29;20048;-79
2020/12/21 05:01:41;;;;;;;6.18;1.40;;;5.30;96.90;;;;;;4882435;29;20048;-79
2020/12/21 05:04:07;;;;;;;10.15;2.40;;;5.20;96.80;;;;;;4858599;29;20126;-79
2020/12/21 05:06:34;;;;;;;8.00;2.10;;;5.20;96.80;;;;;;4888095;29;20052;-79
2020/12/21 05:09:06;;;;;;;8.77;2.20;;;5.20;96.80;;;;;;4867696;29;20053;-79
2020/12/21 05:11:34;;;;;;;9.52;1.80;;;5.20;96.90;;;;;;4885560;29;20063;-79
2020/12/21 05:14:08;;;;;;;8.98;1.80;;;5.20;96.90;;;;;;4883090;29;20040;-79
2020/12/21 05:16:35;;;;;;;5.68;1.20;;;5.10;96.90;;;;;;4877742;29;20047;-79
2020/12/21 05:19:02;;;;;;;7.15;1.35;;;5.20;96.90;;;;;;4894449;29;20048;-79
2020/12/21 05:21:30;;;;;;;9.25;1.40;;;5.20;96.90;;;;;;4879273;29;20036;-79
2020/12/21 05:23:58;;;;;;;5.20;1.83;;;5.20;96.90;;;;;;4889940;29;20048;-79
2020/12/21 05:26:32;;;;;;;8.55;1.42;;;5.20;96.90;;;;;;4851816;29;20037;-78
2020/12/21 05:28:59;;;;;;;12.75;2.25;;;5.20;96.90;;;;;;4857484;29;20048;-80
2020/12/21 05:31:28;;;;;;;9.75;2.00;;;5.20;96.90;;;;;;4880920;29;20036;-80
2020/12/21 05:33:54;;;;;;;9.50;2.07;;;5.20;97.00;;;;;;4887406;29;20110;-80
2020/12/21 05:36:23;;;;;;;7.75;1.60;;;5.20;96.90;;;;;;4865682;29;20053;-79
2020/12/21 05:38:58;;;;;;;30.92;18.10;;;5.20;96.90;;;;;;4864784;29;20048;-79
2020/12/21 05:41:24;;;;;;;16.83;9.82;;;5.20;96.90;;;;;;4890435;29;20040;-79
2020/12/21 05:43:52;;;;;;;22.52;12.52;;;5.20;96.80;;;;;;4854288;29;20040;-80
2020/12/21 05:46:20;;;;;;;13.35;7.32;;;5.20;96.90;;;;;;4859912;29;20047;-80
2020/12/21 05:48:50;;;;;;;10.93;4.17;;;5.20;96.90;;;;;;4865152;29;20039;-79
2020/12/21 05:51:27;;;;;;;12.43;3.78;;;5.20;96.90;;;;;;4869690;29;20036;-80
2020/12/21 05:53:58;;;;;;;11.05;3.20;;;5.20;96.90;;;;;;4881132;29;20040;-79
2020/12/21 05:56:26;;;;;;;4.47;1.67;;;5.20;96.80;;;;;;4916035;29;20032;-79
2020/12/21 05:58:57;;;;;;;11.38;2.92;;;5.20;96.90;;;;;;4878841;29;20060;-79
2020/12/21 06:01:24;;;;;;;8.27;2.28;;;5.20;96.90;;;;;;4866951;29;20049;-79
2020/12/21 06:04:01;;;;;;;5.87;1.33;;;5.10;97.10;;;;;;4872441;29;20048;-79
2020/12/21 06:06:30;;;;;;;11.20;2.67;;;5.10;96.90;;;;;;4878233;29;20044;-79
2020/12/21 06:08:58;;;;;;;10.53;2.47;;;5.10;96.90;;;;;;4891346;29;20404;-79
2020/12/21 06:11:39;;;;;;;11.17;2.80;;;5.10;96.90;;;;;;4863080;29;20037;-79
2020/12/21 06:14:09;;;;;;;7.72;1.48;;;5.10;97.00;;;;;;4863606;29;20040;-79
2020/12/21 06:16:36;;;;;;;4.80;1.40;;;5.10;97.20;;;;;;4872960;29;21016;-79
2020/12/21 06:19:11;;;;;;;7.03;1.67;;;5.10;97.00;;;;;;4894988;29;20519;-79
2020/12/21 06:21:42;;;;;;;9.27;1.98;;;5.10;97.00;;;;;;4883006;29;20048;-79
2020/12/21 06:24:23;;;;;;;5.22;2.03;;;5.10;96.90;;;;;;4893386;29;20066;-79
2020/12/21 06:26:50;;;;;;;11.73;2.45;;;5.20;96.90;;;;;;4854740;29;20044;-79
2020/12/21 06:29:20;;;;;;;12.68;3.30;;;5.20;97.20;;;;;;4823057;29;20048;-81
2020/12/21 06:31:52;;;;;;;12.53;2.97;;;5.20;96.90;;;;;;4895164;29;20041;-81
2020/12/21 06:34:32;;;;;;;12.50;2.63;;;5.20;96.90;;;;;;4877485;29;20055;-81
2020/12/21 06:37:00;;;;;;;13.23;2.92;;;5.30;96.90;;;;;;4878575;29;20056;-81
2020/12/21 06:39:27;;;;;;;11.45;2.92;;;5.30;96.90;;;;;;4874824;29;20047;-81
2020/12/21 06:42:11;;;;;;;21.80;3.85;;;5.20;96.90;;;;;;4862657;29;20059;-80
2020/12/21 06:44:41;;;;;;;17.23;4.78;;;5.20;96.90;;;;;;4912449;29;20040;-81
2020/12/21 06:47:09;;;;;;;19.33;3.58;;;5.30;96.90;;;;;;4874646;29;20033;-81
2020/12/21 06:49:36;;;;;;;14.80;3.33;;;5.20;97.00;;;;;;4888128;29;20041;-81
2020/12/21 06:52:02;;;;;;;14.77;3.77;;;5.20;97.00;;;;;;4860979;29;20044;-81
2020/12/21 06:54:29;;;;;;;14.07;3.88;;;5.30;97.00;;;;;;4892707;29;20044;-81
2020/12/21 06:56:56;;;;;;;13.20;2.80;;;5.20;97.00;;;;;;4872762;29;20041;-81
2020/12/21 06:59:24;;;;;;;14.70;2.97;;;5.30;97.10;;;;;;4890218;29;20067;-81
2020/12/21 07:01:53;;;;;;;12.68;3.60;;;5.20;97.00;;;;;;4859929;29;20472;-81
2020/12/21 07:04:22;;;;;;;11.87;2.53;;;5.20;97.10;;;;;;4902015;29;20067;-80
2020/12/21 07:06:49;;;;;;;7.40;2.45;;;5.20;97.10;;;;;;4875946;29;20033;-81
2020/12/21 07:09:25;;;;;;;12.00;3.20;;;5.20;97.10;;;;;;4886173;29;20048;-80
2020/12/21 07:11:54;;;;;;;9.83;2.03;;;5.20;97.10;;;;;;4874477;29;20036;-81
2020/12/21 07:14:22;;;;;;;10.10;2.60;;;5.20;97.10;;;;;;4879842;29;20076;-81
2020/12/21 07:16:59;;;;;;;11.85;3.28;;;5.20;97.20;;;;;;4877541;29;20040;-81
2020/12/21 07:19:26;;;;;;;11.93;3.42;;;5.30;97.20;;;;;;4859885;29;20040;-81
2020/12/21 07:21:54;;;;;;;13.33;3.10;;;5.30;97.20;;;;;;4857473;29;20037;-81
2020/12/21 07:24:23;;;;;;;13.07;4.30;;;5.30;97.20;;;;;;4880611;29;20118;-83
2020/12/21 07:26:53;;;;;;;9.13;2.27;;;5.30;97.20;;;;;;4883894;29;20040;-80
2020/12/21 07:29:20;;;;;;;9.05;3.08;;;5.40;97.20;;;;;;4873685;29;20047;-81
2020/12/21 07:31:47;;;;;;;8.88;2.40;;;5.40;97.20;;;;;;4857785;29;20416;-81
2020/12/21 07:34:15;;;;;;;8.35;2.80;;;5.40;97.20;;;;;;4904350;29;20052;-80
2020/12/21 07:36:42;;;;;;;10.07;3.20;;;5.50;97.20;;;;;;4879953;29;20049;-80
2020/12/21 07:39:10;;;;;;;5.40;2.55;;;5.40;97.10;;;;;;4892173;29;20068;-80
2020/12/21 07:41:44;;;;;;;14.48;3.80;;;5.50;97.20;;;;;;4904611;29;20036;-82
2020/12/21 07:44:29;;;;;;;13.68;4.35;;;5.40;97.10;;;;;;4874278;29;20044;-80
2020/12/21 07:47:00;;;;;;;10.45;3.50;;;5.50;97.10;;;;;;4863117;29;20036;-80
2020/12/21 07:49:27;;;;;;;12.48;4.07;;;5.50;97.10;;;;;;4894315;29;20047;-80
2020/12/21 07:52:02;;;;;;;14.10;4.47;;;5.50;97.20;;;;;;4868925;29;20048;-80
2020/12/21 07:54:33;;;;;;;7.73;3.00;;;5.50;97.40;;;;;;4893007;29;20064;-80
2020/12/21 07:57:04;;;;;;;10.83;4.23;;;5.50;97.10;;;;;;4901970;29;20130;-80
2020/12/21 07:59:31;;;;;;;11.88;2.95;;;5.50;97.10;;;;;;4899539;29;20063;-81
2020/12/21 08:01:59;;;;;;;8.13;3.30;;;5.50;97.10;;;;;;4856733;29;20044;-80
2020/12/21 08:04:27;;;;;;;11.77;3.25;;;5.50;97.10;;;;;;4863231;29;20423;-80
2020/12/21 08:07:03;;;;;;;9.57;3.08;;;5.50;97.20;;;;;;4868857;29;20037;-81
2020/12/21 08:09:29;;;;;;;15.25;3.28;;;5.50;97.20;;;;;;4882641;29;20057;-81
2020/12/21 08:11:58;;;;;;;18.23;3.87;;;5.50;97.20;;;;;;4858137;29;20487;-81
2020/12/21 08:14:25;;;;;;;15.30;4.00;;;5.60;97.20;;;;;;4853058;29;20056;-81
2020/12/21 08:16:51;;;;;;;9.73;4.20;;;5.60;97.20;;;;;;4892747;29;20055;-81
2020/12/21 08:19:21;;;;;;;15.25;4.70;;;5.70;97.20;;;;;;4854675;29;20043;-81
2020/12/21 08:21:49;;;;;;;16.33;3.70;;;5.80;97.20;;;;;;4856670;29;20048;-81
2020/12/21 08:24:16;;;;;;;14.47;3.80;;;5.90;97.20;;;;;;4870399;29;20432;-81
2020/12/21 08:26:43;;;;;;;6.38;2.55;;;5.90;97.10;;;;;;4876779;29;20044;-81
2020/12/21 08:29:18;;;;;;;7.53;2.30;;;6.00;97.00;;;;;;4872144;29;20060;-80
2020/12/21 08:31:45;;;;;;;14.05;3.53;;;6.00;97.00;;;;;;4888881;29;20055;-81
2020/12/21 08:34:16;;;;;;;12.52;2.92;;;6.10;97.00;;;;;;4878225;29;20051;-81
2020/12/21 08:36:43;;;;;;;9.85;2.10;;;6.10;97.00;;;;;;4878642;29;20055;-81
2020/12/21 08:39:17;;;;;;;9.48;2.03;;;6.20;97.00;;;;;;4888230;29;20048;-81
2020/12/21 08:41:53;;;;;;;6.65;2.10;;;6.20;97.00;;;;;;4899227;29;20052;-81
2020/12/21 08:44:21;;;;;;;4.82;1.70;;;6.30;96.90;;;;;;4880770;29;20048;-81
2020/12/21 08:46:53;;;;;;;10.63;2.35;;;6.30;97.10;;;;;;4869446;29;20508;-81
2020/12/21 08:49:21;;;;;;;10.05;1.92;;;6.40;96.90;;;;;;4881643;29;20036;-81
2020/12/21 08:51:48;;;;;;;8.98;1.98;;;6.40;96.90;;;;;;4869807;29;20049;-81
2020/12/21 08:54:15;;;;;;;12.65;2.50;;;6.40;96.80;;;;;;4899499;29;20408;-80
2020/12/21 08:56:49;;;;;;;8.95;1.60;;;6.50;96.80;;;;;;4873534;29;20452;-81
2020/12/21 08:59:16;;;;;;;14.15;3.10;;;6.60;96.70;;;;;;4868492;29;20523;-81
2020/12/21 09:01:43;;;;;;;15.73;2.83;;;6.60;96.70;;;;;;4907624;29;20068;-81
2020/12/21 09:04:10;;;;;;;8.13;2.50;;;6.60;96.70;;;;;;4880045;29;20048;-80
2020/12/21 09:06:36;;;;;;;10.38;2.65;;;6.70;96.70;;;;;;4889518;29;20033;-79
2020/12/21 09:09:04;;;;;;;9.55;2.05;;;6.70;96.60;;;;;;4834323;29;20033;-78
2020/12/21 09:11:31;;;;;;;22.33;10.77;;;6.80;96.80;;;;;;4880400;29;20032;-79
2020/12/21 09:13:58;;;;;;;17.40;7.88;;;6.80;96.60;;;;;;4900212;29;20747;-79
2020/12/21 09:16:26;;;;;;;18.92;4.30;;;6.90;96.50;;;;;;4904699;29;20048;-79
2020/12/21 09:18:54;;;;;;;10.10;3.17;;;6.90;96.50;;;;;;4880994;29;20028;-78
2020/12/21 09:21:22;;;;;;;11.90;2.92;;;7.00;96.50;;;;;;4881041;29;20044;-79
2020/12/21 09:23:50;;;;;;;12.10;2.40;;;7.10;96.50;;;;;;4915816;29;20739;-79
2020/12/21 09:26:17;;;;;;;15.77;2.90;;;7.10;96.40;;;;;;4904275;29;20048;-79
2020/12/21 09:28:45;;;;;;;13.13;2.58;;;7.20;96.30;;;;;;4870468;29;20032;-78
2020/12/21 09:31:12;;;;;;;11.90;2.25;;;7.20;96.30;;;;;;4898781;29;20405;-79
2020/12/21 09:33:39;;;;;;;12.60;2.63;;;7.30;96.30;;;;;;4880759;29;20500;-79
2020/12/21 09:36:07;;;;;;;14.65;2.35;;;7.30;96.20;;;;;;4900851;29;20063;-78
2020/12/21 09:38:34;;;;;;;6.88;1.77;;;7.30;96.10;;;;;;4880318;29;20066;-78
2020/12/21 09:41:01;;;;;;;11.05;3.45;;;7.40;96.10;;;;;;4900756;29;20051;-78
2020/12/21 09:43:27;;;;;;;14.10;3.33;;;7.40;96.00;;;;;;4852461;29;20055;-78
2020/12/21 09:45:54;;;;;;;13.77;2.45;;;7.40;95.90;;;;;;4884375;29;20057;-78
2020/12/21 09:48:20;;;;;;;6.07;1.40;;;7.50;95.80;;;;;;4851330;29;20040;-78
2020/12/21 09:50:47;;;;;;;8.55;1.77;;;7.50;95.80;;;;;;4870942;29;20044;-78
2020/12/21 09:53:15;;;;;;;10.57;2.38;;;7.50;95.80;;;;;;4888043;29;20036;-78
2020/12/21 09:55:42;;;;;;;10.43;1.85;;;7.50;95.80;;;;;;4854788;29;20496;-78
2020/12/21 09:58:09;;;;;;;9.32;1.67;;;7.60;95.90;;;;;;4872952;29;20040;-78
2020/12/21 10:00:35;;;;;;;8.57;2.05;;;7.60;95.80;;;;;;4881202;29;20513;-78
2020/12/21 10:03:02;;;;;;;6.88;1.65;;;7.60;95.80;;;;;;4868680;29;20036;-78
2020/12/21 10:05:29;;;;;;;13.88;2.38;;;7.60;95.70;;;;;;4880497;29;20601;-78
2020/12/21 10:07:55;;;;;;;12.70;3.42;;;7.70;95.70;;;;;;4855144;29;20052;-78
2020/12/21 10:10:22;;;;;;;9.05;2.63;;;7.70;95.50;;;;;;4859726;29;20092;-78
2020/12/21 10:12:50;;;;;;;10.07;2.95;;;7.70;95.50;;;;;;4870583;29;20055;-78
2020/12/21 10:15:16;;;;;;;10.88;3.22;;;7.70;95.40;;;;;;4887488;29;20044;-78
2020/12/21 10:17:43;;;;;;;7.78;1.85;;;7.80;95.40;;;;;;4859700;29;20067;-78
2020/12/21 10:20:09;;;;;;;9.80;2.30;;;7.80;95.40;;;;;;4904623;29;20037;-79
2020/12/21 10:22:37;;;;;;;5.75;1.42;;;7.80;95.40;;;;;;4873151;29;20041;-78
2020/12/21 10:25:04;;;;;;;7.25;1.42;;;7.80;95.40;;;;;;4878239;29;20045;-79
2020/12/21 10:27:30;;;;;;;9.40;2.00;;;7.80;95.30;;;;;;4869898;29;20044;-78
2020/12/21 10:29:57;;;;;;;11.55;1.92;;;7.90;95.30;;;;;;4880159;29;20041;-78
2020/12/21 10:32:23;;;;;;;10.70;1.80;;;7.90;95.30;;;;;;4868202;29;20825;-78
2020/12/21 10:34:50;;;;;;;7.60;1.50;;;7.90;95.30;;;;;;4882993;29;20044;-80
2020/12/21 10:37:16;;;;;;;10.60;1.35;;;7.90;95.30;;;;;;4883886;29;20048;-78
2020/12/21 10:39:42;;;;;;;9.88;2.00;;;7.90;95.30;;;;;;4853643;29;20043;-79
2020/12/21 10:42:09;;;;;;;11.45;2.25;;;8.00;95.20;;;;;;4867899;29;20055;-79
2020/12/21 10:44:35;;;;;;;10.82;3.92;;;8.00;95.00;;;;;;4853790;29;20052;-81
2020/12/21 10:47:02;;;;;;;7.30;1.70;;;8.00;95.10;;;;;;4840420;29;20037;-79
2020/12/21 10:49:28;;;;;;;10.07;1.90;;;8.00;95.10;;;;;;4860368;29;20369;-79
2020/12/21 10:51:55;;;;;;;15.32;2.55;;;8.00;95.00;;;;;;4844328;29;20036;-82
2020/12/21 10:54:21;;;;;;;11.38;2.30;;;8.00;95.10;;;;;;4842973;29;20044;-79
2020/12/21 10:56:51;;;;;;;7.68;1.63;;;8.00;95.10;;;;;;4885262;29;20054;-79
2020/12/21 10:59:18;;;;;;;9.85;2.33;;;8.00;95.10;;;;;;4832739;29;20045;-79
2020/12/21 11:01:46;;;;;;;11.10;2.38;;;8.00;95.10;;;;;;4845239;29;20056;-79
2020/12/21 11:04:13;;;;;;;7.80;1.70;;;8.00;95.10;;;;;;4868168;29;20056;-82
2020/12/21 11:06:39;;;;;;;10.60;2.10;;;8.00;95.20;;;;;;4858356;29;20499;-82
2020/12/21 11:09:06;;;;;;;6.38;1.52;;;8.00;95.20;;;;;;4859265;29;20383;-81
2020/12/21 11:11:32;;;;;;;5.47;1.60;;;8.00;95.20;;;;;;4874792;29;20040;-81
2020/12/21 11:13:59;;;;;;;12.45;1.50;;;8.00;95.30;;;;;;4885869;29;20416;-80
2020/12/21 11:16:26;;;;;;;11.82;2.08;;;8.00;95.30;;;;;;4869040;29;20040;-80
2020/12/21 11:18:52;;;;;;;12.50;2.70;;;8.00;95.40;;;;;;4877424;29;20032;-80
2020/12/21 11:21:19;;;;;;;7.90;2.20;;;8.00;95.40;;;;;;4872880;29;20055;-80
2020/12/21 11:23:45;;;;;;;7.75;2.05;;;8.00;95.40;;;;;;4885526;29;20495;-79
2020/12/21 11:26:14;;;;;;;9.15;1.77;;;8.00;95.60;;;;;;4882569;29;20035;-79
2020/12/21 11:28:41;;;;;;;14.43;2.97;;;8.00;95.60;;;;;;4880184;29;20036;-79
2020/12/21 11:31:07;;;;;;;9.75;2.97;;;8.00;95.60;;;;;;4871651;29;20037;-79
2020/12/21 11:33:34;;;;;;;11.13;2.50;;;8.00;95.60;;;;;;4900109;29;20039;-79
2020/12/21 11:36:00;;;;;;;14.25;2.42;;;8.00;95.70;;;;;;4869115;29;20056;-79
2020/12/21 11:38:27;;;;;;;7.35;2.20;;;8.00;95.80;;;;;;4864913;29;20063;-79
2020/12/21 11:40:53;;;;;;;10.75;1.90;;;7.90;95.80;;;;;;4866314;29;20032;-79
2020/12/21 11:43:20;;;;;;;11.82;2.85;;;7.90;95.90;;;;;;4905161;29;20060;-79
2020/12/21 11:45:48;;;;;;;15.00;3.20;;;7.90;96.00;;;;;;4855824;29;20059;-79
2020/12/21 11:48:14;;;;;;;12.35;2.72;;;7.90;96.30;;;;;;4881091;29;20044;-79
2020/12/21 11:50:42;;;;;;;12.65;3.42;;;7.90;96.40;;;;;;4872388;29;20061;-78
2020/12/21 11:53:08;;;;;;;12.45;3.40;;;7.90;96.10;;;;;;4887198;29;20036;-79
2020/12/21 11:55:35;;;;;;;13.95;2.55;;;7.90;96.50;;;;;;4892333;29;20412;-83
2020/12/21 11:58:01;;;;;;;10.48;3.47;;;7.90;96.30;;;;;;4856625;29;20488;-79
2020/12/21 12:00:28;;;;;;;8.48;2.50;;;7.90;96.30;;;;;;4858228;29;20452;-78
2020/12/21 12:02:54;;;;;;;12.90;3.10;;;7.90;96.40;;;;;;4891363;29;20052;-79
2020/12/21 12:05:21;;;;;;;9.85;3.35;;;7.90;96.40;;;;;;4886144;29;20412;-79
2020/12/21 12:07:47;;;;;;;10.18;3.58;;;7.90;96.40;;;;;;4883115;29;20032;-78
2020/12/21 12:10:15;;;;;;;14.18;3.70;;;7.90;96.50;;;;;;4848215;29;20056;-79
2020/12/21 12:12:42;;;;;;;17.33;4.38;;;7.90;96.50;;;;;;4875844;29;20047;-78
2020/12/21 12:15:08;;;;;;;16.40;3.38;;;7.90;96.50;;;;;;4869321;29;20060;-78
2020/12/21 12:17:35;;;;;;;14.90;4.18;;;7.90;96.60;;;;;;4835762;29;20035;-78
2020/12/21 12:20:01;;;;;;;10.52;3.22;;;8.00;96.70;;;;;;4883593;29;20039;-79
2020/12/21 12:22:29;;;;;;;13.77;3.78;;;8.00;96.70;;;;;;4854117;29;20044;-78
2020/12/21 12:24:55;;;;;;;8.65;2.92;;;8.00;96.70;;;;;;4867395;29;20435;-78
2020/12/21 12:27:25;;;;;;;7.43;3.30;;;8.00;96.70;;;;;;4898405;29;20032;-79
2020/12/21 12:29:53;;;;;;;16.60;4.38;;;8.00;96.80;;;;;;4879597;29;20036;-79
2020/12/21 12:32:20;;;;;;;13.60;4.25;;;8.00;96.80;;;;;;4867242;29;20118;-80
2020/12/21 12:34:46;;;;;;;17.67;7.47;;;8.00;96.80;;;;;;4889816;29;20047;-80
2020/12/21 12:37:13;;;;;;;17.58;5.78;;;8.00;96.80;;;;;;4877372;29;20060;-77
2020/12/21 12:39:39;;;;;;;14.52;5.40;;;8.00;96.90;;;;;;4867034;29;20048;-79
2020/12/21 12:42:06;;;;;;;18.65;5.65;;;8.00;96.90;;;;;;4898039;29;20051;-76
2020/12/21 12:44:32;;;;;;;17.00;6.43;;;8.00;96.90;;;;;;4866231;29;20753;-79
2020/12/21 12:46:59;;;;;;;14.45;6.00;;;8.00;96.90;;;;;;4902009;29;20489;-79
2020/12/21 12:49:25;;;;;;;13.90;4.53;;;7.90;97.00;;;;;;4883607;29;20051;-79
2020/12/21 12:51:55;;;;;;;20.67;6.75;;;7.90;97.00;;;;;;4872276;29;20040;-79
2020/12/21 12:54:22;;;;;;;12.60;5.45;;;7.90;97.10;;;;;;4900019;29;20055;-79